Time;durP1;ratioP1;P1;durP2;ratioP2;P2;SDS_P1;SDS_P2;PMS_P1;PMS_P2;Temp;Humidity;BMP_temperature;BMP_pressure;BME280_temperature;BME280_humidity;BME280_pressure;Samples;Min_cycle;Max_cycle;Signal;HPM_P1;HPM_P2
2023/07/27 00:00:45;;;;;;;2.65;1.90;;;;;;;;;;5059319;28;20748;-72
2023/07/27 00:03:11;;;;;;;2.72;2.00;;;;;;;;;;5051558;28;20032;-73
2023/07/27 00:05:38;;;;;;;2.00;1.80;;;;;;;;;;5059085;28;20044;-72
2023/07/27 00:08:04;;;;;;;2.60;1.90;;;;;;;;;;5056770;28;20056;-72
2023/07/27 00:10:30;;;;;;;2.25;1.80;;;;;;;;;;5056778;28;20028;-73
2023/07/27 00:12:56;;;;;;;2.67;1.77;;;;;;;;;;5057596;28;20035;-72
2023/07/27 00:15:23;;;;;;;2.78;1.70;;;;;;;;;;5055392;28;20024;-73
2023/07/27 00:17:49;;;;;;;4.00;2.55;;;;;;;;;;5059467;28;20127;-72
2023/07/27 00:20:15;;;;;;;1.55;1.45;;;;;;;;;;5057711;28;20021;-73
2023/07/27 00:22:41;;;;;;;1.70;1.60;;;;;;;;;;5058888;28;20113;-74
2023/07/27 00:25:07;;;;;;;1.60;1.50;;;;;;;;;;5055153;28;20032;-72
2023/07/27 00:27:33;;;;;;;2.40;1.80;;;;;;;;;;5057902;28;20508;-73
2023/07/27 00:29:59;;;;;;;1.90;1.70;;;;;;;;;;5057556;28;20025;-74
2023/07/27 00:32:25;;;;;;;2.35;1.77;;;;;;;;;;5060119;28;20063;-73
2023/07/27 00:34:52;;;;;;;1.88;1.70;;;;;;;;;;5057738;28;20106;-73
2023/07/27 00:37:18;;;;;;;2.13;1.58;;;;;;;;;;5054156;28;20031;-74
2023/07/27 00:39:44;;;;;;;1.83;1.50;;;;;;;;;;5056994;28;20029;-73
2023/07/27 00:42:10;;;;;;;3.13;1.70;;;;;;;;;;5054532;28;20029;-73
2023/07/27 00:44:36;;;;;;;1.70;1.50;;;;;;;;;;5055383;28;20503;-73
2023/07/27 00:47:02;;;;;;;2.08;1.40;;;;;;;;;;5055303;28;20046;-73
2023/07/27 00:49:29;;;;;;;1.58;1.48;;;;;;;;;;5058053;28;20142;-75
2023/07/27 00:51:56;;;;;;;1.60;1.50;;;;;;;;;;5059178;28;20032;-73
2023/07/27 00:54:22;;;;;;;1.98;1.55;;;;;;;;;;5057685;28;20036;-73
2023/07/27 00:56:48;;;;;;;3.03;1.52;;;;;;;;;;5058006;28;20456;-73
2023/07/27 00:59:14;;;;;;;1.35;1.25;;;;;;;;;;5054855;28;20041;-73
2023/07/27 01:01:40;;;;;;;1.50;1.40;;;;;;;;;;5052049;28;20285;-72
2023/07/27 01:04:07;;;;;;;2.17;1.60;;;;;;;;;;5055972;28;20028;-73
2023/07/27 01:06:33;;;;;;;2.58;1.48;;;;;;;;;;5057003;28;20039;-73
2023/07/27 01:08:59;;;;;;;1.40;1.30;;;;;;;;;;5050065;28;20039;-73
2023/07/27 01:11:28;;;;;;;1.13;1.13;;;;;;;;;;5051209;28;20052;-73
2023/07/27 01:14:00;;;;;;;3.30;1.60;;;;;;;;;;5066514;28;20032;-74
2023/07/27 01:16:31;;;;;;;1.50;1.40;;;;;;;;;;5055317;28;20032;-74
2023/07/27 01:19:06;;;;;;;1.42;1.33;;;;;;;;;;5058698;28;20043;-73
2023/07/27 01:21:35;;;;;;;2.40;1.40;;;;;;;;;;5054106;28;20017;-73
2023/07/27 01:24:04;;;;;;;2.35;1.50;;;;;;;;;;5059861;28;20383;-73
2023/07/27 01:26:49;;;;;;;1.83;1.25;;;;;;;;;;5053540;28;20470;-74
2023/07/27 01:29:24;;;;;;;1.58;1.35;;;;;;;;;;5058728;28;20502;-74
2023/07/27 01:31:51;;;;;;;1.13;1.08;;;;;;;;;;5050070;28;20036;-74
2023/07/27 01:34:21;;;;;;;1.40;1.30;;;;;;;;;;5054078;28;20101;-73
2023/07/27 01:36:55;;;;;;;1.48;1.25;;;;;;;;;;5057194;28;20219;-68
2023/07/27 01:39:21;;;;;;;3.72;1.33;;;;;;;;;;5060078;28;20111;-68
2023/07/27 01:41:48;;;;;;;2.13;1.10;;;;;;;;;;5058530;28;20028;-67
2023/07/27 01:44:16;;;;;;;1.60;1.50;;;;;;;;;;5057610;28;20025;-68
2023/07/27 01:46:42;;;;;;;2.78;1.50;;;;;;;;;;5072499;28;20025;-67
2023/07/27 01:49:09;;;;;;;2.58;1.58;;;;;;;;;;5055570;28;20250;-67
2023/07/27 01:51:37;;;;;;;5.00;1.42;;;;;;;;;;5057700;28;20463;-67
2023/07/27 01:54:03;;;;;;;1.60;1.50;;;;;;;;;;5057942;28;20666;-67
2023/07/27 01:56:29;;;;;;;1.13;1.13;;;;;;;;;;5057563;28;20044;-67
2023/07/27 01:58:55;;;;;;;1.25;1.20;;;;;;;;;;5051408;28;20029;-66
2023/07/27 02:01:22;;;;;;;1.30;1.20;;;;;;;;;;5056755;28;20051;-67
2023/07/27 02:03:49;;;;;;;1.27;1.17;;;;;;;;;;5055252;28;20017;-67
2023/07/27 02:06:15;;;;;;;0.82;0.82;;;;;;;;;;5055629;28;20025;-66
2023/07/27 02:08:41;;;;;;;1.00;1.00;;;;;;;;;;5055392;28;20024;-66
2023/07/27 02:11:09;;;;;;;1.63;1.50;;;;;;;;;;5060084;28;20063;-66
2023/07/27 02:13:38;;;;;;;1.30;1.17;;;;;;;;;;5054512;28;20028;-66
2023/07/27 02:16:16;;;;;;;1.48;1.08;;;;;;;;;;5057281;28;20020;-67
2023/07/27 02:18:43;;;;;;;1.38;1.27;;;;;;;;;;5056067;28;20028;-68
2023/07/27 02:21:10;;;;;;;1.23;1.23;;;;;;;;;;5052679;28;20112;-68
2023/07/27 02:23:36;;;;;;;2.80;1.20;;;;;;;;;;5063099;28;20476;-67
2023/07/27 02:26:05;;;;;;;2.83;0.95;;;;;;;;;;5056464;28;20027;-68
2023/07/27 02:28:31;;;;;;;1.95;1.10;;;;;;;;;;5054413;28;20736;-67
2023/07/27 02:30:57;;;;;;;1.25;1.10;;;;;;;;;;5058939;28;20713;-66
2023/07/27 02:33:23;;;;;;;1.25;1.15;;;;;;;;;;5054782;28;20028;-67
2023/07/27 02:35:49;;;;;;;2.72;1.40;;;;;;;;;;5058259;28;20107;-67
2023/07/27 02:38:15;;;;;;;1.25;1.13;;;;;;;;;;5057418;28;20067;-67
2023/07/27 02:40:42;;;;;;;0.90;0.90;;;;;;;;;;5055110;28;20024;-66
2023/07/27 02:43:08;;;;;;;2.53;1.10;;;;;;;;;;5053321;28;20055;-68
2023/07/27 02:45:34;;;;;;;1.35;1.23;;;;;;;;;;5059359;28;20436;-66
2023/07/27 02:48:00;;;;;;;1.95;0.93;;;;;;;;;;5061388;28;20080;-67
2023/07/27 02:50:29;;;;;;;1.27;0.80;;;;;;;;;;5057185;28;20032;-67
2023/07/27 02:52:55;;;;;;;1.10;1.10;;;;;;;;;;5057127;28;20253;-67
2023/07/27 02:55:21;;;;;;;1.00;1.00;;;;;;;;;;5055813;28;20123;-67
2023/07/27 02:57:47;;;;;;;1.23;0.95;;;;;;;;;;5056301;28;20028;-67
2023/07/27 03:00:13;;;;;;;1.40;1.30;;;;;;;;;;5054596;28;20039;-67
2023/07/27 03:02:39;;;;;;;2.10;1.17;;;;;;;;;;5057236;28;20032;-67
2023/07/27 03:05:06;;;;;;;2.90;1.17;;;;;;;;;;5055137;28;20029;-67
2023/07/27 03:07:32;;;;;;;0.95;0.95;;;;;;;;;;5061268;28;20055;-67
2023/07/27 03:09:59;;;;;;;0.93;0.93;;;;;;;;;;5049153;28;20851;-67
2023/07/27 03:12:25;;;;;;;1.00;1.00;;;;;;;;;;5059264;28;20505;-67
2023/07/27 03:14:51;;;;;;;1.45;1.35;;;;;;;;;;5049899;28;20036;-67
2023/07/27 03:17:17;;;;;;;1.02;0.93;;;;;;;;;;5052543;28;20028;-68
2023/07/27 03:19:43;;;;;;;1.17;1.17;;;;;;;;;;5055555;28;20021;-67
2023/07/27 03:22:09;;;;;;;1.10;1.10;;;;;;;;;;5056315;28;20035;-67
2023/07/27 03:24:35;;;;;;;1.00;1.00;;;;;;;;;;5055447;28;20086;-67
2023/07/27 03:27:01;;;;;;;1.08;1.08;;;;;;;;;;5058920;28;20033;-69
2023/07/27 03:29:28;;;;;;;1.75;1.20;;;;;;;;;;5057051;28;20032;-68
2023/07/27 03:31:54;;;;;;;1.30;1.05;;;;;;;;;;5062038;28;20418;-67
2023/07/27 03:34:20;;;;;;;1.35;1.23;;;;;;;;;;5055646;28;20147;-73
2023/07/27 03:36:46;;;;;;;0.88;0.88;;;;;;;;;;5075616;28;20139;-73
2023/07/27 03:39:12;;;;;;;1.17;1.13;;;;;;;;;;5056691;28;20044;-73
2023/07/27 03:41:38;;;;;;;1.65;1.00;;;;;;;;;;5051903;28;20578;-73
2023/07/27 03:44:04;;;;;;;1.20;1.10;;;;;;;;;;5057139;28;20064;-73
2023/07/27 03:46:30;;;;;;;1.20;1.20;;;;;;;;;;5060718;28;20029;-73
2023/07/27 03:48:57;;;;;;;1.10;1.10;;;;;;;;;;5056351;28;20090;-73
2023/07/27 03:51:23;;;;;;;1.60;1.17;;;;;;;;;;5055404;28;20131;-74
2023/07/27 03:53:49;;;;;;;1.38;1.27;;;;;;;;;;5052005;28;20029;-74
2023/07/27 03:56:15;;;;;;;1.23;1.23;;;;;;;;;;5048475;28;20072;-73
2023/07/27 03:58:41;;;;;;;2.15;1.15;;;;;;;;;;5058315;28;20033;-73
2023/07/27 04:01:07;;;;;;;0.85;0.85;;;;;;;;;;5061551;28;20028;-74
2023/07/27 04:03:33;;;;;;;1.42;1.30;;;;;;;;;;5074710;28;20264;-72
2023/07/27 04:06:00;;;;;;;1.17;1.08;;;;;;;;;;5061186;28;20028;-73
2023/07/27 04:08:26;;;;;;;1.17;1.08;;;;;;;;;;5059837;28;20546;-73
2023/07/27 04:10:52;;;;;;;1.48;1.05;;;;;;;;;;5058142;28;20492;-73
2023/07/27 04:13:18;;;;;;;1.08;1.08;;;;;;;;;;5059389;28;20052;-73
2023/07/27 04:15:44;;;;;;;8.45;1.50;;;;;;;;;;5060298;28;20473;-73
2023/07/27 04:18:10;;;;;;;1.67;1.58;;;;;;;;;;5058119;28;20040;-73
2023/07/27 04:20:37;;;;;;;1.20;1.10;;;;;;;;;;5059823;28;20108;-73
2023/07/27 04:23:03;;;;;;;1.27;1.20;;;;;;;;;;5058254;28;20031;-73
2023/07/27 04:25:29;;;;;;;1.42;1.33;;;;;;;;;;5048297;28;20029;-74
2023/07/27 04:27:55;;;;;;;1.35;1.13;;;;;;;;;;5058475;28;20029;-73
2023/07/27 04:30:21;;;;;;;1.00;1.00;;;;;;;;;;5057952;28;20067;-74
2023/07/27 04:32:47;;;;;;;0.80;0.80;;;;;;;;;;5060081;28;20033;-73
2023/07/27 04:35:13;;;;;;;1.05;1.05;;;;;;;;;;5054641;28;20475;-73
2023/07/27 04:37:39;;;;;;;1.00;1.00;;;;;;;;;;5058216;28;20108;-74
2023/07/27 04:40:06;;;;;;;0.70;0.70;;;;;;;;;;5055980;28;20052;-73
2023/07/27 04:42:32;;;;;;;1.27;1.00;;;;;;;;;;5058107;28;20488;-73
2023/07/27 04:45:01;;;;;;;1.30;1.20;;;;;;;;;;5069166;28;20091;-73
2023/07/27 04:47:27;;;;;;;3.55;1.90;;;;;;;;;;5058063;28;20037;-74
2023/07/27 04:49:53;;;;;;;1.10;1.10;;;;;;;;;;5056604;28;20325;-74
2023/07/27 04:52:19;;;;;;;1.00;1.00;;;;;;;;;;5057457;28;20475;-73
2023/07/27 04:54:45;;;;;;;1.65;1.55;;;;;;;;;;5055163;28;20281;-74
2023/07/27 04:57:11;;;;;;;1.33;1.23;;;;;;;;;;5054896;28;20040;-73
2023/07/27 04:59:37;;;;;;;0.90;0.90;;;;;;;;;;5054336;28;20037;-74
2023/07/27 05:02:03;;;;;;;1.88;1.30;;;;;;;;;;5056056;28;20029;-73
2023/07/27 05:04:29;;;;;;;1.10;1.10;;;;;;;;;;5054621;28;20467;-74
2023/07/27 05:06:55;;;;;;;0.80;0.80;;;;;;;;;;5057575;28;20020;-73
2023/07/27 05:09:22;;;;;;;1.95;1.50;;;;;;;;;;5050426;28;20400;-73
2023/07/27 05:11:48;;;;;;;1.25;1.15;;;;;;;;;;5054494;28;20033;-74
2023/07/27 05:14:14;;;;;;;3.58;1.15;;;;;;;;;;5051663;28;20379;-74
2023/07/27 05:16:40;;;;;;;1.20;1.13;;;;;;;;;;5050635;28;20043;-73
2023/07/27 05:19:06;;;;;;;1.10;1.10;;;;;;;;;;5056107;28;20032;-73
2023/07/27 05:21:32;;;;;;;0.90;0.90;;;;;;;;;;5068076;28;20534;-75
2023/07/27 05:23:58;;;;;;;0.90;0.90;;;;;;;;;;5047000;28;21510;-73
2023/07/27 05:26:24;;;;;;;2.30;1.05;;;;;;;;;;5055985;28;20032;-73
2023/07/27 05:28:50;;;;;;;1.00;1.00;;;;;;;;;;5049210;28;20052;-73
2023/07/27 05:31:17;;;;;;;0.90;0.90;;;;;;;;;;5054952;28;20055;-73
2023/07/27 05:33:43;;;;;;;3.22;1.20;;;;;;;;;;5060569;28;20056;-73
2023/07/27 05:36:11;;;;;;;1.02;0.95;;;;;;;;;;5052267;28;20648;-73
2023/07/27 05:38:40;;;;;;;1.45;1.00;;;;;;;;;;5054360;28;20035;-73
2023/07/27 05:41:06;;;;;;;1.20;1.10;;;;;;;;;;5049543;28;20029;-73
2023/07/27 05:43:32;;;;;;;1.10;1.10;;;;;;;;;;5054268;28;20461;-73
2023/07/27 05:45:58;;;;;;;1.20;1.10;;;;;;;;;;5052697;28;20025;-73
2023/07/27 05:48:24;;;;;;;1.33;1.20;;;;;;;;;;5052036;28;20134;-73
2023/07/27 05:50:53;;;;;;;1.20;1.10;;;;;;;;;;5052602;28;20029;-73
2023/07/27 05:53:19;;;;;;;1.10;1.00;;;;;;;;;;5052621;28;20180;-73
2023/07/27 05:55:45;;;;;;;0.93;0.93;;;;;;;;;;5049116;28;20024;-74
2023/07/27 05:58:11;;;;;;;1.00;1.00;;;;;;;;;;5052607;28;20045;-73
2023/07/27 06:00:37;;;;;;;3.20;1.13;;;;;;;;;;5051361;28;20039;-73
2023/07/27 06:03:04;;;;;;;1.00;1.00;;;;;;;;;;5051984;28;20039;-73
2023/07/27 06:05:30;;;;;;;1.40;1.30;;;;;;;;;;5050992;28;20025;-73
2023/07/27 06:07:56;;;;;;;1.48;1.20;;;;;;;;;;5049727;28;20028;-73
2023/07/27 06:10:22;;;;;;;1.10;1.10;;;;;;;;;;5050933;28;20031;-73
2023/07/27 06:12:48;;;;;;;1.23;1.17;;;;;;;;;;5052948;28;20032;-72
2023/07/27 06:15:14;;;;;;;1.10;1.10;;;;;;;;;;5052411;28;20029;-73
2023/07/27 06:17:41;;;;;;;1.00;1.00;;;;;;;;;;5048873;28;20028;-74
2023/07/27 06:20:08;;;;;;;1.05;1.05;;;;;;;;;;5051869;28;20044;-74
2023/07/27 06:22:34;;;;;;;0.98;0.98;;;;;;;;;;5051729;28;20024;-73
2023/07/27 06:25:00;;;;;;;1.48;1.27;;;;;;;;;;5055446;28;20381;-73
2023/07/27 06:27:26;;;;;;;1.63;1.50;;;;;;;;;;5048469;28;20055;-73
2023/07/27 06:29:52;;;;;;;3.35;1.60;;;;;;;;;;5065020;28;20033;-73
2023/07/27 06:32:18;;;;;;;1.55;1.45;;;;;;;;;;5050640;28;21612;-73
2023/07/27 06:34:45;;;;;;;1.63;1.40;;;;;;;;;;5054422;28;20044;-73
2023/07/27 06:37:11;;;;;;;2.58;1.63;;;;;;;;;;5050722;28;20045;-73
2023/07/27 06:39:39;;;;;;;1.70;1.50;;;;;;;;;;5054093;28;20049;-73
2023/07/27 06:42:06;;;;;;;2.50;2.10;;;;;;;;;;5068072;28;20020;-74
2023/07/27 06:44:32;;;;;;;1.50;1.40;;;;;;;;;;5050958;28;20036;-73
2023/07/27 06:46:58;;;;;;;1.50;1.40;;;;;;;;;;5049915;28;20028;-74
2023/07/27 06:49:24;;;;;;;2.10;1.50;;;;;;;;;;5051284;28;20194;-73
2023/07/27 06:51:50;;;;;;;2.00;1.65;;;;;;;;;;5053299;28;20119;-74
2023/07/27 06:54:18;;;;;;;3.08;1.55;;;;;;;;;;5051545;28;20040;-73
2023/07/27 06:56:44;;;;;;;2.80;1.75;;;;;;;;;;5052183;28;20024;-72
2023/07/27 06:59:10;;;;;;;3.13;1.77;;;;;;;;;;5052716;28;20044;-73
2023/07/27 07:01:36;;;;;;;1.98;1.80;;;;;;;;;;5051829;28;20036;-75
2023/07/27 07:04:03;;;;;;;1.73;1.63;;;;;;;;;;5053438;28;20032;-70
2023/07/27 07:06:29;;;;;;;1.60;1.50;;;;;;;;;;5055049;28;20119;-69
2023/07/27 07:08:57;;;;;;;1.60;1.50;;;;;;;;;;5048092;28;20063;-68
2023/07/27 07:11:23;;;;;;;1.30;1.20;;;;;;;;;;5055451;28;20848;-69
2023/07/27 07:13:49;;;;;;;1.92;1.30;;;;;;;;;;5053039;28;20380;-68
2023/07/27 07:16:18;;;;;;;1.88;1.20;;;;;;;;;;5050318;28;20032;-68
2023/07/27 07:18:44;;;;;;;1.13;1.13;;;;;;;;;;5050156;28;20036;-69
2023/07/27 07:21:10;;;;;;;2.00;1.25;;;;;;;;;;5055013;28;20020;-68
2023/07/27 07:23:36;;;;;;;1.13;1.10;;;;;;;;;;5055146;28;20391;-68
2023/07/27 07:26:02;;;;;;;1.55;1.00;;;;;;;;;;5057015;28;20103;-69
2023/07/27 07:28:28;;;;;;;6.75;2.20;;;;;;;;;;5057874;28;20447;-69
2023/07/27 07:30:54;;;;;;;2.22;1.33;;;;;;;;;;5056719;28;20071;-68
2023/07/27 07:33:20;;;;;;;2.03;1.20;;;;;;;;;;5055401;28;20028;-69
2023/07/27 07:35:47;;;;;;;1.75;1.20;;;;;;;;;;5055273;28;20439;-68
2023/07/27 07:38:13;;;;;;;1.27;1.15;;;;;;;;;;5062870;28;20036;-68
2023/07/27 07:40:39;;;;;;;1.75;1.08;;;;;;;;;;5066833;28;20484;-68
2023/07/27 07:43:07;;;;;;;1.08;0.98;;;;;;;;;;5055901;28;20052;-69
2023/07/27 07:45:34;;;;;;;1.42;1.33;;;;;;;;;;5050523;28;20024;-69
2023/07/27 07:48:00;;;;;;;1.10;1.10;;;;;;;;;;5052539;28;20443;-69
2023/07/27 07:50:26;;;;;;;1.25;1.20;;;;;;;;;;5058765;28;20032;-68
2023/07/27 07:52:52;;;;;;;2.05;1.63;;;;;;;;;;5055242;28;20531;-69
2023/07/27 07:55:21;;;;;;;1.20;1.20;;;;;;;;;;5052303;28;20031;-68
2023/07/27 07:57:47;;;;;;;1.42;1.33;;;;;;;;;;5050234;28;20021;-69
2023/07/27 08:00:13;;;;;;;1.30;1.20;;;;;;;;;;5052375;28;20557;-69
2023/07/27 08:02:40;;;;;;;1.38;1.27;;;;;;;;;;5052663;28;20028;-69
2023/07/27 08:05:06;;;;;;;1.42;1.33;;;;;;;;;;5055773;28;20025;-73
2023/07/27 08:07:32;;;;;;;1.45;1.23;;;;;;;;;;5059580;28;20071;-73
2023/07/27 08:09:59;;;;;;;1.60;1.50;;;;;;;;;;5057084;28;20032;-72
2023/07/27 08:12:25;;;;;;;1.45;1.30;;;;;;;;;;5052964;28;20040;-80
2023/07/27 08:14:52;;;;;;;2.67;1.38;;;;;;;;;;5072237;28;20654;-70
2023/07/27 08:17:18;;;;;;;1.70;1.50;;;;;;;;;;5067985;28;20025;-72
2023/07/27 08:19:44;;;;;;;9.68;2.80;;;;;;;;;;5060676;28;20431;-72
2023/07/27 08:22:10;;;;;;;4.57;1.80;;;;;;;;;;5059366;28;20515;-73
2023/07/27 08:24:36;;;;;;;14.15;2.95;;;;;;;;;;5057689;28;20032;-76
2023/07/27 08:27:05;;;;;;;5.93;2.22;;;;;;;;;;5053502;28;20046;-74
2023/07/27 08:29:31;;;;;;;8.27;2.65;;;;;;;;;;5058495;28;20063;-74
2023/07/27 08:31:57;;;;;;;2.00;1.55;;;;;;;;;;5076154;28;20032;-72
2023/07/27 08:34:23;;;;;;;1.80;1.55;;;;;;;;;;5058957;28;20052;-72
2023/07/27 08:36:51;;;;;;;1.98;1.50;;;;;;;;;;5061394;28;20025;-74
2023/07/27 08:39:18;;;;;;;1.70;1.55;;;;;;;;;;5059339;28;20038;-75
2023/07/27 08:41:44;;;;;;;4.00;1.90;;;;;;;;;;5063877;28;20434;-74
2023/07/27 08:44:12;;;;;;;1.77;1.63;;;;;;;;;;5057423;28;20067;-74
2023/07/27 08:46:38;;;;;;;1.80;1.70;;;;;;;;;;5054425;28;20063;-72
2023/07/27 08:49:04;;;;;;;1.45;1.35;;;;;;;;;;5055561;28;20059;-73
2023/07/27 08:51:34;;;;;;;1.70;1.60;;;;;;;;;;5056573;28;20796;-73
2023/07/27 08:54:00;;;;;;;2.92;1.60;;;;;;;;;;5057743;28;20575;-73
2023/07/27 08:56:26;;;;;;;1.60;1.50;;;;;;;;;;5058588;28;20039;-75
2023/07/27 08:58:53;;;;;;;2.55;1.73;;;;;;;;;;5055958;28;20033;-74
2023/07/27 09:01:20;;;;;;;2.08;1.50;;;;;;;;;;5057022;28;20029;-73
2023/07/27 09:03:46;;;;;;;1.83;1.45;;;;;;;;;;5056751;28;20032;-74
2023/07/27 09:06:12;;;;;;;1.60;1.50;;;;;;;;;;5059189;28;20078;-75
2023/07/27 09:08:38;;;;;;;2.70;1.58;;;;;;;;;;5055873;28;20081;-70
2023/07/27 09:11:06;;;;;;;2.25;1.55;;;;;;;;;;5061286;28;20032;-77
2023/07/27 09:13:34;;;;;;;1.70;1.60;;;;;;;;;;5071025;28;20609;-77
2023/07/27 09:16:06;;;;;;;2.00;1.70;;;;;;;;;;5068589;28;20020;-76
2023/07/27 09:18:35;;;;;;;1.80;1.60;;;;;;;;;;5058835;28;20589;-73
2023/07/27 09:21:09;;;;;;;1.70;1.60;;;;;;;;;;5054564;28;20052;-73
2023/07/27 09:23:38;;;;;;;1.88;1.67;;;;;;;;;;5061816;28;20025;-77
2023/07/27 09:26:05;;;;;;;1.65;1.40;;;;;;;;;;5062099;28;20021;-81
2023/07/27 09:28:31;;;;;;;1.77;1.65;;;;;;;;;;5057894;28;20028;-72
2023/07/27 09:31:04;;;;;;;2.22;1.55;;;;;;;;;;5054004;28;20414;-80
2023/07/27 09:33:31;;;;;;;2.03;1.50;;;;;;;;;;5054096;28;20459;-75
2023/07/27 09:35:57;;;;;;;2.25;1.60;;;;;;;;;;5059532;28;20042;-75
2023/07/27 09:38:27;;;;;;;2.30;2.00;;;;;;;;;;5059568;28;20040;-73
2023/07/27 09:40:53;;;;;;;4.10;2.40;;;;;;;;;;5057626;28;20484;-71
2023/07/27 09:43:22;;;;;;;3.33;2.42;;;;;;;;;;5057185;28;20029;-69
2023/07/27 09:45:48;;;;;;;2.35;1.60;;;;;;;;;;5048969;28;20029;-72
2023/07/27 09:48:14;;;;;;;1.90;1.67;;;;;;;;;;5059107;28;20115;-71
2023/07/27 09:50:42;;;;;;;2.00;1.80;;;;;;;;;;5058764;28;20024;-70
2023/07/27 09:53:11;;;;;;;2.30;1.80;;;;;;;;;;5059347;28;20097;-73
2023/07/27 09:55:37;;;;;;;1.85;1.75;;;;;;;;;;5054825;28;20697;-77
2023/07/27 09:58:05;;;;;;;2.00;1.80;;;;;;;;;;5057416;28;20020;-76
2023/07/27 10:00:31;;;;;;;1.60;1.50;;;;;;;;;;5055248;28;20029;-70
2023/07/27 10:03:00;;;;;;;2.45;1.50;;;;;;;;;;5057035;28;20131;-74
2023/07/27 10:05:26;;;;;;;1.63;1.52;;;;;;;;;;5054013;28;20602;-73
2023/07/27 10:07:52;;;;;;;1.63;1.50;;;;;;;;;;5055634;28;20033;-73
2023/07/27 10:10:36;;;;;;;1.67;1.58;;;;;;;;;;5056038;28;20029;-72
2023/07/27 10:13:07;;;;;;;1.95;1.50;;;;;;;;;;5054048;28;20601;-73
2023/07/27 10:15:38;;;;;;;1.85;1.67;;;;;;;;;;5053014;28;20029;-76
2023/07/27 10:18:04;;;;;;;1.90;1.80;;;;;;;;;;5056111;28;20058;-75
2023/07/27 10:20:32;;;;;;;3.70;2.60;;;;;;;;;;5057987;28;20029;-76
2023/07/27 10:23:11;;;;;;;2.03;1.60;;;;;;;;;;5055717;28;20491;-77
2023/07/27 10:25:55;;;;;;;2.22;1.98;;;;;;;;;;5054729;28;20025;-76
2023/07/27 10:28:41;;;;;;;3.55;1.88;;;;;;;;;;5057098;28;20032;-75
2023/07/27 10:31:24;;;;;;;2.13;1.92;;;;;;;;;;5056929;28;20043;-71
2023/07/27 10:33:50;;;;;;;2.67;1.83;;;;;;;;;;5054828;28;20040;-74
2023/07/27 10:36:16;;;;;;;2.10;1.80;;;;;;;;;;5054754;28;20159;-73
2023/07/27 10:38:55;;;;;;;1.92;1.67;;;;;;;;;;5052369;28;20588;-72
2023/07/27 10:41:22;;;;;;;1.90;1.70;;;;;;;;;;5055663;28;20430;-75
2023/07/27 10:44:18;;;;;;;3.25;2.20;;;;;;;;;;5060629;28;20021;-71
2023/07/27 10:46:44;;;;;;;;;;;;;;;;;;5055373;28;20040;-72
2023/07/27 10:49:10;;;;;;;3.50;2.10;;;;;;;;;;5064456;28;20275;-71
2023/07/27 10:51:36;;;;;;;2.25;2.05;;;;;;;;;;5058636;28;20032;-71
2023/07/27 10:54:03;;;;;;;3.58;2.00;;;;;;;;;;5059298;28;20028;-73
2023/07/27 10:56:30;;;;;;;1.98;1.77;;;;;;;;;;5052254;28;20032;-73
2023/07/27 10:59:00;;;;;;;2.95;1.80;;;;;;;;;;5054932;28;20491;-74
2023/07/27 11:01:28;;;;;;;2.45;1.73;;;;;;;;;;5058905;28;20103;-74
2023/07/27 11:03:58;;;;;;;2.08;1.80;;;;;;;;;;5060055;28;20421;-74
2023/07/27 11:06:27;;;;;;;2.72;1.90;;;;;;;;;;5059067;28;20981;-74
2023/07/27 11:08:53;;;;;;;2.42;2.03;;;;;;;;;;5058008;28;20119;-73
2023/07/27 11:11:20;;;;;;;2.15;1.95;;;;;;;;;;5059619;28;20036;-73
2023/07/27 11:13:47;;;;;;;4.82;2.08;;;;;;;;;;5055809;28;20031;-74
2023/07/27 11:16:14;;;;;;;2.85;2.10;;;;;;;;;;5056182;28;20039;-74
2023/07/27 11:18:43;;;;;;;2.63;2.15;;;;;;;;;;5055556;28;20539;-74
2023/07/27 11:21:09;;;;;;;4.78;2.13;;;;;;;;;;5058606;28;20024;-74
2023/07/27 11:23:44;;;;;;;1.98;1.77;;;;;;;;;;5068571;28;20140;-75
2023/07/27 11:26:10;;;;;;;5.40;2.45;;;;;;;;;;5067901;28;20445;-74
2023/07/27 11:28:36;;;;;;;2.10;1.80;;;;;;;;;;5057106;28;20036;-74
2023/07/27 11:31:05;;;;;;;4.40;2.10;;;;;;;;;;5052789;28;20325;-75
2023/07/27 11:33:35;;;;;;;2.60;1.85;;;;;;;;;;5055426;28;20480;-74
2023/07/27 11:36:01;;;;;;;1.70;1.60;;;;;;;;;;5055223;28;20024;-72
2023/07/27 11:38:30;;;;;;;2.00;1.80;;;;;;;;;;5050129;28;20041;-72
2023/07/27 11:40:59;;;;;;;1.85;1.75;;;;;;;;;;5053828;28;20058;-72
2023/07/27 11:43:26;;;;;;;1.80;1.70;;;;;;;;;;5051212;28;20028;-72
2023/07/27 11:45:56;;;;;;;1.92;1.70;;;;;;;;;;5050657;28;20131;-73
2023/07/27 11:48:29;;;;;;;2.20;1.70;;;;;;;;;;5051163;28;20059;-72
2023/07/27 11:50:56;;;;;;;1.98;1.67;;;;;;;;;;5049412;28;20551;-73
2023/07/27 11:53:26;;;;;;;2.13;1.92;;;;;;;;;;5051785;28;20086;-72
2023/07/27 11:55:52;;;;;;;2.42;1.90;;;;;;;;;;5052662;28;20122;-73
2023/07/27 11:58:19;;;;;;;1.90;1.77;;;;;;;;;;5049556;28;20021;-72
2023/07/27 12:00:49;;;;;;;2.50;1.90;;;;;;;;;;5055314;28;20480;-73
2023/07/27 12:03:16;;;;;;;2.63;1.80;;;;;;;;;;5056035;28;20032;-72
2023/07/27 12:05:42;;;;;;;2.92;1.80;;;;;;;;;;5053501;28;20312;-72
2023/07/27 12:08:08;;;;;;;1.60;1.50;;;;;;;;;;5053642;28;20515;-71
2023/07/27 12:10:34;;;;;;;2.03;1.80;;;;;;;;;;5050980;28;20055;-72
2023/07/27 12:13:03;;;;;;;2.60;1.70;;;;;;;;;;5058985;28;20040;-72
2023/07/27 12:15:31;;;;;;;1.98;1.77;;;;;;;;;;5062142;28;20044;-70
2023/07/27 12:18:00;;;;;;;2.60;2.40;;;;;;;;;;5058663;28;20380;-71
2023/07/27 12:20:27;;;;;;;2.10;1.80;;;;;;;;;;5057670;28;20039;-73
2023/07/27 12:22:54;;;;;;;2.17;1.90;;;;;;;;;;5052096;28;20119;-72
2023/07/27 12:25:20;;;;;;;1.85;1.65;;;;;;;;;;5066971;28;20031;-69
2023/07/27 12:27:46;;;;;;;2.03;1.80;;;;;;;;;;5055030;28;20021;-72
2023/07/27 12:30:13;;;;;;;2.25;1.70;;;;;;;;;;5058396;28;20360;-72
2023/07/27 12:32:39;;;;;;;2.15;1.92;;;;;;;;;;5049950;28;20033;-72
2023/07/27 12:35:06;;;;;;;2.50;2.30;;;;;;;;;;5057000;28;20050;-69
2023/07/27 12:37:32;;;;;;;2.75;1.80;;;;;;;;;;5061251;28;20126;-71
2023/07/27 12:39:58;;;;;;;2.40;2.20;;;;;;;;;;5053020;28;20037;-71
2023/07/27 12:42:24;;;;;;;3.22;2.10;;;;;;;;;;5052465;28;20021;-70
2023/07/27 12:44:53;;;;;;;2.10;1.90;;;;;;;;;;5071763;28;20028;-74
2023/07/27 12:47:20;;;;;;;2.47;2.28;;;;;;;;;;5054962;28;20024;-74
2023/07/27 12:49:46;;;;;;;3.63;2.20;;;;;;;;;;5052816;28;20028;-74
2023/07/27 12:52:12;;;;;;;2.30;2.10;;;;;;;;;;5057348;28;20630;-75
2023/07/27 12:54:38;;;;;;;2.17;1.98;;;;;;;;;;5061544;28;20032;-75
2023/07/27 12:57:04;;;;;;;1.98;1.88;;;;;;;;;;5070380;28;20047;-76
2023/07/27 12:59:30;;;;;;;2.42;1.90;;;;;;;;;;5059337;28;20025;-77
2023/07/27 13:01:56;;;;;;;2.10;1.90;;;;;;;;;;5061652;28;20028;-76
2023/07/27 13:04:22;;;;;;;2.30;2.00;;;;;;;;;;5060578;28;20451;-76
2023/07/27 13:06:48;;;;;;;1.73;1.63;;;;;;;;;;5063467;28;20036;-73
2023/07/27 13:09:18;;;;;;;1.80;1.70;;;;;;;;;;5055498;28;20523;-75
2023/07/27 13:11:44;;;;;;;2.17;1.98;;;;;;;;;;5070095;28;20040;-75
2023/07/27 13:14:10;;;;;;;2.17;1.98;;;;;;;;;;5049739;28;20053;-74
2023/07/27 13:16:36;;;;;;;2.55;1.70;;;;;;;;;;5049735;28;20068;-76
2023/07/27 13:19:04;;;;;;;1.80;1.70;;;;;;;;;;5058623;28;20579;-74
2023/07/27 13:21:30;;;;;;;1.60;1.50;;;;;;;;;;5051633;28;20021;-78
2023/07/27 13:23:56;;;;;;;1.90;1.70;;;;;;;;;;5053807;28;20063;-80
2023/07/27 13:26:22;;;;;;;1.48;1.40;;;;;;;;;;5053608;28;20031;-77
2023/07/27 13:28:48;;;;;;;1.70;1.48;;;;;;;;;;5060941;28;20032;-77
2023/07/27 13:31:18;;;;;;;1.48;1.38;;;;;;;;;;5056876;28;20373;-75
2023/07/27 13:33:45;;;;;;;1.60;1.50;;;;;;;;;;5056071;28;20040;-75
2023/07/27 13:36:11;;;;;;;3.10;1.35;;;;;;;;;;5056470;28;20037;-77
2023/07/27 13:38:37;;;;;;;1.60;1.50;;;;;;;;;;5056239;28;20032;-76
2023/07/27 13:41:04;;;;;;;2.67;1.70;;;;;;;;;;5078480;28;20488;-75
2023/07/27 13:43:32;;;;;;;1.58;1.48;;;;;;;;;;5057272;28;20494;-75
2023/07/27 13:45:59;;;;;;;3.00;2.08;;;;;;;;;;5057800;28;20021;-76
2023/07/27 13:48:25;;;;;;;1.80;1.70;;;;;;;;;;5056068;28;20060;-75
2023/07/27 13:50:52;;;;;;;2.20;2.00;;;;;;;;;;5055813;28;20029;-77
2023/07/27 13:53:19;;;;;;;1.88;1.77;;;;;;;;;;5060192;28;20024;-76
2023/07/27 13:55:50;;;;;;;1.98;1.88;;;;;;;;;;5078509;28;20469;-74
2023/07/27 13:58:19;;;;;;;1.80;1.70;;;;;;;;;;5070946;28;20036;-75
2023/07/27 14:00:46;;;;;;;2.35;2.15;;;;;;;;;;5054362;28;20041;-77
2023/07/27 14:03:13;;;;;;;1.98;1.80;;;;;;;;;;5056380;28;20373;-77
2023/07/27 14:05:39;;;;;;;2.03;1.70;;;;;;;;;;5054817;28;20813;-76
2023/07/27 14:08:05;;;;;;;1.90;1.80;;;;;;;;;;5053755;28;20163;-76
2023/07/27 14:10:31;;;;;;;1.63;1.52;;;;;;;;;;5060321;28;20047;-73
2023/07/27 14:12:58;;;;;;;1.80;1.70;;;;;;;;;;5055382;28;20035;-75
2023/07/27 14:15:24;;;;;;;1.70;1.60;;;;;;;;;;5060142;28;20025;-77
2023/07/27 14:17:50;;;;;;;1.70;1.60;;;;;;;;;;5055854;28;20029;-75
2023/07/27 14:20:16;;;;;;;1.60;1.50;;;;;;;;;;5056502;28;20024;-75
2023/07/27 14:22:42;;;;;;;1.70;1.60;;;;;;;;;;5058153;28;20561;-75
2023/07/27 14:25:08;;;;;;;1.60;1.50;;;;;;;;;;5061071;28;20033;-75
2023/07/27 14:27:34;;;;;;;1.45;1.38;;;;;;;;;;5055582;28;20036;-73
2023/07/27 14:30:04;;;;;;;2.63;1.70;;;;;;;;;;5056049;28;20074;-75
2023/07/27 14:32:30;;;;;;;1.98;1.60;;;;;;;;;;5057958;28;20036;-75
2023/07/27 14:34:56;;;;;;;1.70;1.60;;;;;;;;;;5058852;28;20059;-72
2023/07/27 14:37:22;;;;;;;1.73;1.60;;;;;;;;;;5058031;28;20075;-72
2023/07/27 14:39:48;;;;;;;1.85;1.73;;;;;;;;;;5055163;28;20028;-73
2023/07/27 14:42:15;;;;;;;1.63;1.52;;;;;;;;;;5055150;28;20070;-73